Time;durP1;ratioP1;P1;durP2;ratioP2;P2;SDS_P1;SDS_P2;PMS_P1;PMS_P2;Temp;Humidity;BMP_temperature;BMP_pressure;BME280_temperature;BME280_humidity;BME280_pressure;Samples;Min_cycle;Max_cycle;Signal;HPM_P1;HPM_P2
2023/11/29 00:00:15;;;;;;;91.00;42.70;;;;;;;-1.96;87.40;99289.50;129511;1270;114650;-60
2023/11/29 00:03:50;;;;;;;88.30;41.80;;;;;;;-1.96;87.87;99292.65;129715;1264;128303;-60
2023/11/29 00:07:00;;;;;;;89.80;42.30;;;;;;;-1.98;87.10;99290.94;129697;1284;115334;-60
2023/11/29 00:10:12;;;;;;;92.50;41.30;;;;;;;-1.98;87.15;99295.84;129546;1264;114832;-60
2023/11/29 00:13:23;;;;;;;85.40;41.80;;;;;;;-1.99;87.65;99305.81;129525;1264;114835;-60
2023/11/29 00:16:26;;;;;;;85.10;39.90;;;;;;;-2.00;87.01;99312.31;129151;1281;114760;-61
2023/11/29 00:19:30;;;;;;;85.20;37.80;;;;;;;-2.01;86.63;99319.67;129088;1272;128679;-59
2023/11/29 00:22:33;;;;;;;88.40;40.90;;;;;;;-2.03;86.88;99323.55;129192;1270;114877;-60
2023/11/29 00:25:37;;;;;;;87.10;40.50;;;;;;;-2.04;86.80;99327.23;129048;1280;114890;-60
2023/11/29 00:28:40;;;;;;;81.30;37.70;;;;;;;-2.05;87.19;99329.52;129237;1270;114832;-60
2023/11/29 00:31:46;;;;;;;83.70;36.40;;;;;;;-2.07;86.81;99329.90;129107;1289;114890;-60
2023/11/29 00:34:51;;;;;;;79.90;35.80;;;;;;;-2.08;87.29;99327.84;129311;1274;128968;-60
2023/11/29 00:37:56;;;;;;;70.20;32.40;;;;;;;-2.12;87.08;99329.61;129578;1263;115212;-60
2023/11/29 00:40:59;;;;;;;78.20;37.80;;;;;;;-2.14;87.43;99335.41;129559;1277;114850;-59
2023/11/29 00:44:05;;;;;;;75.00;36.90;;;;;;;-2.16;87.11;99338.95;129649;1264;114789;-59
2023/11/29 00:47:10;;;;;;;79.00;37.60;;;;;;;-2.18;87.02;99339.33;129509;1276;114800;-60
2023/11/29 00:50:17;;;;;;;63.70;28.30;;;;;;;-2.19;86.74;99343.19;129483;1267;128017;-60
2023/11/29 00:53:20;;;;;;;80.50;39.20;;;;;;;-2.20;87.14;99344.60;129506;1285;115825;-60
2023/11/29 00:56:23;;;;;;;77.90;37.20;;;;;;;-2.20;86.88;99357.19;129609;1277;114797;-59
2023/11/29 00:59:25;;;;;;;83.40;36.70;;;;;;;-2.21;86.90;99360.34;129511;1266;114772;-60
2023/11/29 01:02:30;;;;;;;;;;;;;;;-2.23;86.84;99363.70;129600;1280;114762;-59
2023/11/29 01:05:33;;;;;;;70.10;33.60;;;;;;;-2.26;87.00;99357.61;129830;1274;114703;-61
2023/11/29 01:08:37;;;;;;;86.30;36.50;;;;;;;-2.28;86.56;99357.11;129832;1268;114690;-59
2023/11/29 01:11:46;;;;;;;73.10;33.90;;;;;;;-2.31;86.82;99356.28;129805;1270;114691;-60
2023/11/29 01:14:50;;;;;;;81.40;34.40;;;;;;;-2.33;86.64;99359.27;127011;1269;3868052;-60
2023/11/29 01:18:00;;;;;;;73.20;34.70;;;;;;;-2.34;86.65;99365.76;129587;1264;114813;-60
2023/11/29 01:21:05;;;;;;;75.30;35.10;;;;;;;-2.37;86.43;99362.64;129640;1266;114832;-60
2023/11/29 01:24:08;;;;;;;74.10;34.30;;;;;;;-2.39;86.47;99358.83;129646;1266;114839;-60
2023/11/29 01:27:11;;;;;;;67.50;33.00;;;;;;;-2.38;86.93;99359.52;129814;1275;114803;-59
2023/11/29 01:30:15;;;;;;;80.60;37.00;;;;;;;-2.41;87.03;99365.84;129699;1265;114774;-61
2023/11/29 01:33:19;;;;;;;59.00;27.80;;;;;;;-2.41;87.20;99372.67;129842;1270;114732;-60
2023/11/29 01:36:22;;;;;;;66.10;32.90;;;;;;;-2.43;86.60;99373.90;129569;1267;114834;-60
2023/11/29 01:39:28;;;;;;;68.90;30.90;;;;;;;-2.48;86.76;99371.88;129657;1267;128074;-60
2023/11/29 01:42:31;;;;;;;65.20;31.80;;;;;;;-2.51;86.83;99374.36;129705;1264;115207;-60
2023/11/29 01:45:35;;;;;;;69.20;33.80;;;;;;;-2.52;86.88;99367.55;129628;1262;114985;-60
2023/11/29 01:49:06;;;;;;;74.80;35.80;;;;;;;-2.53;87.09;99367.02;129635;1262;114779;-60
2023/11/29 01:52:11;;;;;;;82.40;36.80;;;;;;;-2.53;87.32;99371.58;129615;1284;114883;-62
2023/11/29 01:55:16;;;;;;;88.70;39.40;;;;;;;-2.53;87.44;99369.83;128994;1286;128611;-60
2023/11/29 01:58:26;;;;;;;87.00;40.30;;;;;;;-2.54;86.73;99365.45;129014;1289;115344;-60
2023/11/29 02:01:28;;;;;;;88.50;37.30;;;;;;;-2.56;86.77;99364.25;129131;1270;116111;-60
2023/11/29 02:04:31;;;;;;;74.80;33.90;;;;;;;-2.59;86.52;99361.49;129106;1270;114954;-59
2023/11/29 02:07:35;;;;;;;78.40;34.20;;;;;;;-2.62;86.70;99363.64;129249;1289;114950;-61
2023/11/29 02:10:43;;;;;;;70.00;33.40;;;;;;;-2.67;86.66;99366.14;129203;1270;128001;-60
2023/11/29 02:13:46;;;;;;;77.20;33.30;;;;;;;-2.71;86.98;99369.66;128903;1289;115390;-60
2023/11/29 02:16:49;;;;;;;70.50;31.30;;;;;;;-2.74;86.56;99370.92;129184;1273;114854;-60
2023/11/29 02:19:51;;;;;;;73.30;29.70;;;;;;;-2.76;86.79;99368.33;129142;1270;115032;-60
2023/11/29 02:22:59;;;;;;;76.60;33.30;;;;;;;-2.77;86.74;99366.41;129345;1284;115123;-60
2023/11/29 02:26:01;;;;;;;71.40;32.30;;;;;;;-2.81;86.55;99370.48;129364;1284;115374;-59
2023/11/29 02:29:03;;;;;;;68.70;30.80;;;;;;;-2.82;86.95;99373.27;129325;1267;115097;-60
2023/11/29 02:32:06;;;;;;;73.20;33.30;;;;;;;-2.82;86.74;99375.39;129379;1264;114797;-60
2023/11/29 02:35:08;;;;;;;73.20;30.00;;;;;;;-2.83;87.00;99375.20;129336;1277;115283;-60
2023/11/29 02:38:11;;;;;;;65.70;29.10;;;;;;;-2.87;86.83;99379.09;129356;1276;115141;-60
2023/11/29 02:41:13;;;;;;;70.10;31.10;;;;;;;-2.87;86.96;99383.98;129327;1265;114811;-60
2023/11/29 02:44:15;;;;;;;60.60;28.60;;;;;;;-2.91;86.57;99384.71;129552;1264;114832;-60
2023/11/29 02:47:18;;;;;;;57.00;27.60;;;;;;;-2.92;86.94;99387.70;129649;1261;115184;-60
2023/11/29 02:50:21;;;;;;;58.60;26.40;;;;;;;-2.91;87.23;99392.23;129177;1281;116326;-60
2023/11/29 02:53:26;;;;;;;54.70;24.80;;;;;;;-2.91;87.38;99391.01;129405;1267;114891;-60
2023/11/29 02:56:28;;;;;;;56.60;25.20;;;;;;;-2.92;86.52;99389.98;129248;1288;115059;-61
2023/11/29 02:59:31;;;;;;;55.40;26.00;;;;;;;-2.95;86.81;99389.30;129272;1267;115915;-61
2023/11/29 03:02:33;;;;;;;53.00;25.80;;;;;;;-2.95;87.33;99387.38;129093;1279;114903;-61
2023/11/29 03:05:37;;;;;;;55.50;25.50;;;;;;;-2.95;87.14;99387.38;129182;1269;114745;-60
2023/11/29 03:08:42;;;;;;;53.10;25.30;;;;;;;-2.94;87.31;99387.54;129164;1270;114857;-60
2023/11/29 03:11:45;;;;;;;52.40;25.70;;;;;;;-2.91;87.51;99388.40;129217;1283;114900;-60
2023/11/29 03:14:48;;;;;;;54.50;24.70;;;;;;;-2.90;87.44;99389.09;129266;1270;114804;-60
2023/11/29 03:17:51;;;;;;;49.60;23.70;;;;;;;-2.88;87.35;99390.11;129212;1274;114928;-60
2023/11/29 03:20:54;;;;;;;56.60;23.50;;;;;;;-2.88;87.29;99387.13;129405;1270;114852;-60
2023/11/29 03:24:00;;;;;;;48.30;23.80;;;;;;;-2.85;87.35;99386.23;129540;1285;114729;-60
2023/11/29 03:27:03;;;;;;;42.20;20.00;;;;;;;-2.84;87.41;99386.75;129379;1288;115144;-61
2023/11/29 03:30:07;;;;;;;36.70;18.30;;;;;;;-2.83;87.36;99385.35;129404;1266;114951;-61
2023/11/29 03:33:09;;;;;;;35.90;17.30;;;;;;;-2.83;87.20;99390.77;129279;1270;114821;-61
2023/11/29 03:36:11;;;;;;;28.80;15.90;;;;;;;-2.84;87.34;99395.66;129214;1270;114864;-60
2023/11/29 03:39:14;;;;;;;29.00;15.40;;;;;;;-2.83;87.29;99397.41;129229;1270;114950;-60
2023/11/29 03:42:17;;;;;;;28.10;14.20;;;;;;;-2.83;87.22;99398.27;129160;1270;114934;-60
2023/11/29 03:45:19;;;;;;;27.30;13.80;;;;;;;-2.84;87.23;99398.98;129201;1270;114939;-60
2023/11/29 03:48:21;;;;;;;26.50;13.30;;;;;;;-2.83;87.13;99396.89;129052;1269;115258;-60
2023/11/29 03:51:23;;;;;;;26.40;13.70;;;;;;;-2.83;87.44;99394.45;129249;1267;115175;-60
2023/11/29 03:54:25;;;;;;;35.40;14.70;;;;;;;-2.83;87.49;99392.67;129317;1265;114745;-60
2023/11/29 03:57:27;;;;;;;28.50;14.20;;;;;;;-2.82;87.31;99387.78;129278;1268;115249;-60
2023/11/29 04:00:30;;;;;;;27.20;13.70;;;;;;;-2.81;87.21;99384.10;129401;1260;115607;-60
2023/11/29 04:03:32;;;;;;;32.50;15.70;;;;;;;-2.81;87.21;99381.82;129448;1266;115119;-60
2023/11/29 04:06:37;;;;;;;32.00;15.90;;;;;;;-2.79;87.43;99383.04;129619;1264;114846;-60
2023/11/29 04:09:41;;;;;;;;;;;;;;;-2.79;87.24;99391.77;129622;1277;114790;-60
2023/11/29 04:12:44;;;;;;;27.90;15.20;;;;;;;-2.82;86.69;99394.77;129339;1269;114897;-60
2023/11/29 04:15:47;;;;;;;30.20;17.30;;;;;;;-2.82;87.12;99398.44;129403;1262;114860;-61
2023/11/29 04:18:50;;;;;;;32.50;16.20;;;;;;;-2.82;86.80;99398.45;129346;1265;115365;-60
2023/11/29 04:21:52;;;;;;;31.90;17.50;;;;;;;-2.82;87.12;99394.77;129400;1262;115294;-61
2023/11/29 04:24:54;;;;;;;33.90;17.40;;;;;;;-2.81;87.14;99392.52;129458;1262;114800;-60
2023/11/29 04:27:57;;;;;;;34.00;18.00;;;;;;;-2.80;87.19;99388.98;129426;1265;114781;-60
2023/11/29 04:31:00;;;;;;;36.60;17.60;;;;;;;-2.80;87.30;99384.44;129386;1265;114816;-60
2023/11/29 04:34:03;;;;;;;36.80;18.50;;;;;;;-2.81;87.11;99387.26;129442;1265;115228;-61
2023/11/29 04:37:06;;;;;;;34.70;18.10;;;;;;;-2.83;86.98;99384.83;129406;1264;114780;-61
2023/11/29 04:40:08;;;;;;;35.30;17.20;;;;;;;-2.85;87.27;99380.29;129414;1261;114755;-61
2023/11/29 04:43:10;;;;;;;32.80;16.80;;;;;;;-2.84;87.28;99378.90;129458;1265;115272;-62
2023/11/29 04:46:13;;;;;;;38.00;18.10;;;;;;;-2.83;87.14;99373.64;129236;1263;114831;-61
2023/11/29 04:49:15;;;;;;;32.80;16.50;;;;;;;-2.82;87.12;99375.20;129389;1283;114749;-62
2023/11/29 04:52:18;;;;;;;30.70;16.10;;;;;;;-2.82;87.33;99373.45;129367;1272;114822;-61
2023/11/29 04:55:21;;;;;;;39.30;17.40;;;;;;;-2.84;86.91;99373.64;129474;1265;114743;-62
2023/11/29 04:58:23;;;;;;;35.10;18.40;;;;;;;-2.86;86.97;99375.23;129423;1263;114726;-62
2023/11/29 05:01:26;;;;;;;35.60;18.60;;;;;;;-2.88;86.62;99370.71;129518;1261;114821;-61
2023/11/29 05:04:32;;;;;;;38.70;18.00;;;;;;;-2.89;86.98;99373.70;129459;1264;114803;-60
2023/11/29 05:07:36;;;;;;;39.00;18.10;;;;;;;-2.90;86.79;99375.27;129262;1265;114826;-60
2023/11/29 05:10:38;;;;;;;39.60;19.90;;;;;;;-2.90;86.71;99377.53;129437;1267;114796;-61
2023/11/29 05:13:40;;;;;;;40.20;20.00;;;;;;;-2.90;86.98;99371.60;129426;1264;114800;-61
2023/11/29 05:16:43;;;;;;;36.00;19.60;;;;;;;-2.92;86.73;99369.02;129480;1264;115340;-62
2023/11/29 05:19:45;;;;;;;38.00;19.50;;;;;;;-2.94;86.92;99365.17;129708;1260;114736;-60
2023/11/29 05:22:47;;;;;;;45.00;21.80;;;;;;;-2.93;87.14;99371.28;129491;1265;114679;-61
2023/11/29 05:25:49;;;;;;;37.00;19.50;;;;;;;-2.92;87.34;99372.50;129286;1267;114958;-60
2023/11/29 05:28:51;;;;;;;38.20;19.60;;;;;;;-2.93;86.87;99374.26;129302;1277;114757;-61
2023/11/29 05:31:53;;;;;;;40.60;18.60;;;;;;;-2.95;86.70;99377.59;129050;1284;128503;-61
2023/11/29 05:34:56;;;;;;;41.10;20.30;;;;;;;-2.99;87.17;99382.02;129243;1262;114772;-61
2023/11/29 05:37:59;;;;;;;42.60;19.60;;;;;;;-2.99;87.25;99380.61;129377;1264;115254;-63
2023/11/29 05:41:01;;;;;;;41.80;20.50;;;;;;;-2.98;87.15;99378.50;129351;1264;114838;-61
2023/11/29 05:44:03;;;;;;;38.30;17.80;;;;;;;-2.96;87.15;99370.45;129435;1264;114706;-61
2023/11/29 05:47:06;;;;;;;53.20;24.30;;;;;;;-2.96;87.55;99369.56;129245;1265;114790;-61
2023/11/29 05:50:09;;;;;;;48.00;22.40;;;;;;;-2.95;87.09;99371.66;129283;1264;114819;-60
2023/11/29 05:53:11;;;;;;;49.40;23.00;;;;;;;-2.95;87.15;99370.42;129528;1261;115614;-61
2023/11/29 05:56:14;;;;;;;42.50;21.60;;;;;;;-2.94;87.67;99368.84;129431;1260;115207;-61
2023/11/29 05:59:17;;;;;;;39.70;21.30;;;;;;;-2.94;87.49;99372.17;129425;1267;114739;-62
2023/11/29 06:02:19;;;;;;;33.40;18.00;;;;;;;-2.94;86.94;99377.75;129569;1262;114761;-62
2023/11/29 06:05:21;;;;;;;28.60;15.90;;;;;;;-2.95;86.79;99378.63;129398;1264;114714;-62
2023/11/29 06:08:23;;;;;;;27.30;14.50;;;;;;;-2.95;87.33;99380.56;129297;1265;115358;-61
2023/11/29 06:11:26;;;;;;;27.90;14.30;;;;;;;-2.95;87.01;99382.48;129298;1277;114715;-61
2023/11/29 06:14:28;;;;;;;27.30;15.20;;;;;;;-2.95;87.05;99386.69;129145;1276;115259;-61
2023/11/29 06:17:32;;;;;;;27.80;15.40;;;;;;;-2.96;87.01;99388.60;129292;1262;115174;-60
2023/11/29 06:20:34;;;;;;;31.90;16.40;;;;;;;-2.98;86.74;99388.98;129325;1264;115346;-61
2023/11/29 06:23:39;;;;;;;38.60;17.70;;;;;;;-2.99;86.83;99383.23;129299;1264;114764;-61
2023/11/29 06:26:41;;;;;;;36.70;16.40;;;;;;;-2.99;86.85;99380.08;129139;1270;128720;-61
2023/11/29 06:29:43;;;;;;;41.70;16.90;;;;;;;-3.02;86.80;99383.95;129360;1261;114821;-60
2023/11/29 06:32:45;;;;;;;39.70;16.90;;;;;;;-3.06;86.80;99387.13;129381;1264;115183;-62
2023/11/29 06:35:48;;;;;;;30.20;16.20;;;;;;;-3.12;86.41;99386.64;129058;1262;114935;-62
2023/11/29 06:38:52;;;;;;;34.80;16.30;;;;;;;-3.17;86.69;99386.00;129467;1264;114714;-60
2023/11/29 06:41:55;;;;;;;37.40;17.90;;;;;;;-3.23;86.59;99389.55;128783;1262;114880;-61
2023/11/29 06:44:57;;;;;;;33.80;16.40;;;;;;;-3.29;86.16;99392.57;129163;1263;114740;-61
2023/11/29 06:48:00;;;;;;;37.20;18.00;;;;;;;-3.37;86.21;99392.45;129425;1262;114746;-61
2023/11/29 06:51:02;;;;;;;37.60;20.10;;;;;;;-3.47;86.03;99394.61;129434;1264;114781;-62
2023/11/29 06:54:05;;;;;;;43.60;19.50;;;;;;;-3.55;85.98;99395.02;129272;1263;117174;-61
2023/11/29 06:57:07;;;;;;;38.50;18.40;;;;;;;-3.63;85.75;99393.51;129280;1264;115274;-61
2023/11/29 07:00:10;;;;;;;50.90;23.40;;;;;;;-3.71;85.79;99393.90;129377;1262;115269;-60
2023/11/29 07:03:13;;;;;;;52.70;24.90;;;;;;;-3.77;85.65;99395.15;129326;1267;114735;-61
2023/11/29 07:06:22;;;;;;;48.00;22.30;;;;;;;-3.84;85.65;99397.30;129422;1261;115056;-60
2023/11/29 07:09:27;;;;;;;43.80;21.80;;;;;;;-3.88;85.72;99398.89;129517;1283;114725;-61
2023/11/29 07:12:29;;;;;;;37.10;19.00;;;;;;;-3.93;85.63;99408.67;129443;1283;114783;-60
2023/11/29 07:15:32;;;;;;;43.00;20.90;;;;;;;-3.97;85.70;99416.20;129456;1263;114726;-61
2023/11/29 07:18:34;;;;;;;37.80;20.30;;;;;;;-3.99;85.52;99417.61;129387;1265;115160;-60
2023/11/29 07:21:36;;;;;;;44.70;23.90;;;;;;;-4.01;85.42;99421.45;129385;1260;115682;-60
2023/11/29 07:24:38;;;;;;;57.10;24.90;;;;;;;-4.00;85.68;99421.79;129313;1283;128865;-60
2023/11/29 07:27:40;;;;;;;55.40;25.90;;;;;;;-3.97;85.80;99425.98;129321;1262;114695;-61
2023/11/29 07:30:43;;;;;;;53.60;26.70;;;;;;;-3.97;85.58;99425.44;129400;1261;115303;-61
2023/11/29 07:33:45;;;;;;;55.80;26.40;;;;;;;-3.95;85.46;99426.99;129140;1264;114986;-61
2023/11/29 07:36:51;;;;;;;55.70;27.40;;;;;;;-3.92;85.39;99423.34;129366;1264;114803;-61
2023/11/29 07:39:53;;;;;;;54.10;27.00;;;;;;;-3.87;85.43;99428.17;129114;1262;114743;-61
2023/11/29 07:42:55;;;;;;;58.20;27.40;;;;;;;-3.77;85.50;99425.17;129136;1262;114796;-62
2023/11/29 07:45:57;;;;;;;56.80;28.10;;;;;;;-3.71;85.32;99425.48;129422;1260;114779;-60
2023/11/29 07:49:00;;;;;;;51.10;26.20;;;;;;;-3.64;85.37;99423.52;129077;1275;114927;-60
2023/11/29 07:52:03;;;;;;;59.60;29.80;;;;;;;-3.57;85.21;99424.36;129157;1264;114720;-60
2023/11/29 07:55:07;;;;;;;63.40;30.90;;;;;;;-3.53;85.26;99427.80;129112;1267;114735;-60
2023/11/29 07:58:08;;;;;;;58.20;28.80;;;;;;;-3.53;85.05;99425.20;129188;1267;114761;-61
2023/11/29 08:01:11;;;;;;;58.30;29.00;;;;;;;-3.53;84.92;99430.25;129235;1262;115359;-60
2023/11/29 08:04:13;;;;;;;63.00;31.50;;;;;;;-3.54;84.74;99429.56;129234;1285;128793;-60
2023/11/29 08:07:16;;;;;;;63.90;31.60;;;;;;;-3.55;84.50;99431.84;129191;1285;115083;-61
2023/11/29 08:10:18;;;;;;;65.00;30.80;;;;;;;-3.54;84.71;99430.62;129144;1263;114819;-60
2023/11/29 08:13:20;;;;;;;71.60;32.30;;;;;;;-3.51;84.77;99430.77;129192;1267;114879;-60
2023/11/29 08:16:23;;;;;;;67.40;30.90;;;;;;;-3.47;84.65;99432.32;129058;1268;114760;-60
2023/11/29 08:19:25;;;;;;;66.50;31.00;;;;;;;-3.44;84.80;99437.19;129163;1267;114825;-60
2023/11/29 08:22:27;;;;;;;72.10;32.20;;;;;;;-3.41;84.49;99438.04;129201;1262;114784;-60
2023/11/29 08:25:29;;;;;;;62.70;30.50;;;;;;;-3.37;84.41;99440.45;129162;1285;130048;-60
2023/11/29 08:28:32;;;;;;;67.60;32.70;;;;;;;-3.34;84.69;99443.76;129324;1282;114774;-60
2023/11/29 08:31:34;;;;;;;66.20;32.20;;;;;;;-3.31;84.56;99446.35;129170;1262;115330;-60
2023/11/29 08:34:36;;;;;;;77.50;36.60;;;;;;;-3.26;84.46;99450.68;128936;1262;114871;-60
2023/11/29 08:37:38;;;;;;;77.90;36.40;;;;;;;-3.21;84.65;99449.61;129254;1266;114800;-60
2023/11/29 08:40:41;;;;;;;67.40;34.20;;;;;;;-3.16;84.39;99448.70;129161;1266;115337;-60
2023/11/29 08:43:43;;;;;;;73.60;36.20;;;;;;;-3.13;84.43;99451.48;129288;1262;114739;-60
2023/11/29 08:46:45;;;;;;;56.10;25.70;;;;;;;-3.09;84.42;99449.86;129088;1267;128873;-60
2023/11/29 08:49:47;;;;;;;63.80;30.50;;;;;;;-3.05;84.28;99447.02;129287;1264;114655;-60
2023/11/29 08:52:51;;;;;;;64.20;31.00;;;;;;;-3.01;84.21;99449.09;129432;1264;116326;-63
2023/11/29 08:55:53;;;;;;;60.40;29.20;;;;;;;-2.98;84.35;99453.95;129243;1263;114808;-62
2023/11/29 08:58:56;;;;;;;63.10;30.20;;;;;;;-2.97;84.15;99455.70;129296;1263;115178;-65
2023/11/29 09:01:58;;;;;;;64.60;29.60;;;;;;;-2.96;83.84;99454.83;129536;1265;115667;-65
2023/11/29 09:05:03;;;;;;;62.80;29.60;;;;;;;-2.95;83.91;99452.01;129625;1264;114707;-64
2023/11/29 09:08:05;;;;;;;59.80;28.40;;;;;;;-2.92;83.85;99453.03;129322;1284;130180;-63
2023/11/29 09:11:10;;;;;;;57.10;28.10;;;;;;;-2.86;83.60;99451.05;129399;1264;115569;-65
2023/11/29 09:14:12;;;;;;;64.90;30.40;;;;;;;-2.78;83.85;99443.84;129800;1261;114752;-66
2023/11/29 09:17:16;;;;;;;60.30;30.30;;;;;;;-2.69;83.87;99443.23;129823;1261;114719;-65
2023/11/29 09:20:18;;;;;;;37.50;18.00;;;;;;;-2.61;83.95;99438.78;129517;1264;114755;-65
2023/11/29 09:23:20;;;;;;;52.90;27.00;;;;;;;-2.55;83.97;99432.07;129300;1263;114775;-65
2023/11/29 09:26:22;;;;;;;59.70;29.60;;;;;;;-2.48;84.02;99429.02;129413;1265;117319;-63
2023/11/29 09:29:26;;;;;;;59.60;27.30;;;;;;;-2.42;83.52;99428.98;129129;1266;128494;-65
2023/11/29 09:32:34;;;;;;;54.40;27.30;;;;;;;-2.38;82.75;99422.10;129314;1283;115077;-64
2023/11/29 09:35:42;;;;;;;44.80;22.80;;;;;;;-2.34;82.89;99419.96;129454;1265;114831;-65
2023/11/29 09:38:49;;;;;;;48.50;24.90;;;;;;;-2.29;83.03;99420.79;129403;1267;114695;-63
2023/11/29 09:41:53;;;;;;;51.40;24.20;;;;;;;-2.23;82.78;99415.48;129379;1261;114759;-65
2023/11/29 09:44:58;;;;;;;49.40;23.60;;;;;;;-2.19;82.81;99412.61;129344;1283;128185;-64
2023/11/29 09:48:05;;;;;;;49.60;23.30;;;;;;;-2.13;82.21;99406.42;129224;1283;115175;-65
2023/11/29 09:51:11;;;;;;;48.00;22.30;;;;;;;-2.08;82.35;99403.05;129377;1263;114721;-64
2023/11/29 09:54:17;;;;;;;46.70;23.20;;;;;;;-2.06;82.11;99402.84;129384;1262;114828;-64
2023/11/29 09:57:21;;;;;;;56.40;24.20;;;;;;;-2.06;81.94;99399.70;129348;1284;114713;-64
2023/11/29 10:00:24;;;;;;;44.90;21.10;;;;;;;-2.05;81.91;99399.14;129366;1264;114835;-64
2023/11/29 10:03:27;;;;;;;49.90;23.80;;;;;;;-2.04;81.32;99390.92;129339;1266;114887;-64
2023/11/29 10:06:30;;;;;;;47.60;21.40;;;;;;;-2.04;80.97;99386.89;129369;1283;114745;-65
2023/11/29 10:09:37;;;;;;;44.20;21.70;;;;;;;-2.05;81.15;99383.75;129901;1264;115391;-65
2023/11/29 10:12:42;;;;;;;46.00;23.00;;;;;;;-2.04;81.05;99377.45;129240;1283;114820;-64
2023/11/29 10:15:49;;;;;;;46.30;21.90;;;;;;;-2.01;81.39;99371.45;129327;1265;128686;-65
2023/11/29 10:18:51;;;;;;;40.80;19.90;;;;;;;-1.99;80.61;99369.16;129010;1284;115109;-64
2023/11/29 10:21:54;;;;;;;48.50;22.90;;;;;;;-2.02;80.69;99363.95;129280;1264;114729;-66
2023/11/29 10:24:57;;;;;;;46.30;22.40;;;;;;;-2.01;80.63;99362.73;129226;1261;115221;-64
2023/11/29 10:28:03;;;;;;;46.60;23.50;;;;;;;-1.99;80.66;99361.65;129367;1265;114911;-63
2023/11/29 10:31:08;;;;;;;48.60;24.20;;;;;;;-1.97;80.50;99350.41;129278;1265;127629;-64
2023/11/29 10:34:14;;;;;;;49.30;24.40;;;;;;;-1.94;80.25;99343.71;129497;1265;115329;-64
2023/11/29 10:37:18;;;;;;;42.30;20.80;;;;;;;-1.92;80.17;99338.10;129444;1261;115169;-64
2023/11/29 10:40:23;;;;;;;42.90;22.10;;;;;;;-1.90;80.03;99338.75;129373;1265;115086;-64
2023/11/29 10:43:29;;;;;;;42.80;22.00;;;;;;;-1.88;79.94;99343.98;129289;1267;114814;-65
2023/11/29 10:46:34;;;;;;;50.30;23.40;;;;;;;-1.84;79.87;99340.08;129376;1265;128768;-64
2023/11/29 10:49:47;;;;;;;45.20;23.00;;;;;;;-1.77;79.93;99338.40;129052;1283;114794;-64
2023/11/29 10:52:49;;;;;;;47.60;22.50;;;;;;;-1.70;80.21;99330.23;129046;1263;114832;-63
2023/11/29 10:55:52;;;;;;;43.30;22.60;;;;;;;-1.64;80.03;99328.92;129341;1264;114816;-64
2023/11/29 10:59:13;;;;;;;45.50;21.90;;;;;;;-1.59;80.18;99328.51;129304;1276;114752;-64
2023/11/29 11:02:15;;;;;;;37.50;18.80;;;;;;;-1.55;79.51;99326.86;129222;1283;128595;-63
2023/11/29 11:05:22;;;;;;;41.30;20.80;;;;;;;-1.54;79.37;99320.20;129454;1265;114726;-63
2023/11/29 11:08:36;;;;;;;42.20;21.00;;;;;;;-1.55;79.29;99314.23;129409;1265;114753;-64
2023/11/29 11:11:48;;;;;;;46.80;22.90;;;;;;;-1.53;79.12;99311.77;129375;1260;115387;-64
2023/11/29 11:14:53;;;;;;;46.70;22.50;;;;;;;-1.50;79.07;99307.01;129134;1262;114848;-64
2023/11/29 11:18:02;;;;;;;38.90;21.00;;;;;;;-1.49;79.51;99301.38;129324;1283;128838;-64
2023/11/29 11:21:15;;;;;;;44.20;21.90;;;;;;;-1.46;79.23;99302.73;129149;1265;116552;-63
2023/11/29 11:24:17;;;;;;;47.30;23.60;;;;;;;-1.45;79.30;99303.25;129046;1261;115540;-64
2023/11/29 11:27:43;;;;;;;52.40;25.20;;;;;;;-1.45;78.74;99306.73;129446;1262;115178;-65
2023/11/29 11:30:45;;;;;;;48.20;25.40;;;;;;;-1.45;79.22;99301.48;128988;1278;114975;-65
2023/11/29 11:33:52;;;;;;;42.30;21.30;;;;;;;-1.45;79.55;99296.92;129217;1262;114788;-65
2023/11/29 11:36:57;;;;;;;43.00;21.60;;;;;;;-1.48;78.61;99301.70;129325;1264;115226;-65
2023/11/29 11:40:06;;;;;;;44.20;23.60;;;;;;;-1.48;79.10;99305.02;129348;1265;114723;-63
2023/11/29 11:43:12;;;;;;;43.70;21.80;;;;;;;-1.49;78.56;99301.20;129260;1261;115383;-63
2023/11/29 11:46:19;;;;;;;46.90;23.10;;;;;;;-1.52;78.69;99293.55;129279;1280;114800;-64
2023/11/29 11:49:27;;;;;;;42.80;22.70;;;;;;;-1.55;78.62;99294.98;129345;1265;127934;-64
2023/11/29 11:52:35;;;;;;;41.70;21.10;;;;;;;-1.56;78.15;99289.59;129337;1283;115230;-64
2023/11/29 11:55:47;;;;;;;43.80;21.70;;;;;;;-1.59;78.12;99291.04;129552;1262;114700;-63
2023/11/29 11:58:55;;;;;;;45.40;22.10;;;;;;;-1.63;78.41;99287.41;129285;1264;114787;-65
2023/11/29 12:01:59;;;;;;;42.70;21.80;;;;;;;-1.63;78.36;99283.23;129382;1263;115435;-66
2023/11/29 12:05:03;;;;;;;46.70;22.40;;;;;;;-1.63;78.29;99273.77;129782;1265;115155;-64
2023/11/29 12:08:06;;;;;;;54.50;25.00;;;;;;;-1.63;78.47;99270.08;129397;1262;114774;-64
2023/11/29 12:11:11;;;;;;;44.80;23.60;;;;;;;-1.64;78.39;99266.43;129362;1265;115307;-65
2023/11/29 12:14:16;;;;;;;50.10;25.60;;;;;;;-1.64;78.53;99268.70;129824;1262;114843;-62
2023/11/29 12:17:19;;;;;;;47.20;22.20;;;;;;;-1.65;78.60;99272.05;129094;1268;114928;-65
2023/11/29 12:20:22;;;;;;;44.30;21.90;;;;;;;-1.67;78.46;99269.64;129374;1262;114721;-64
2023/11/29 12:23:28;;;;;;;47.60;23.40;;;;;;;-1.70;78.79;99272.13;129349;1263;114800;-64
2023/11/29 12:26:31;;;;;;;43.10;20.80;;;;;;;-1.75;78.21;99269.40;129279;1265;114812;-64
2023/11/29 12:29:37;;;;;;;44.00;22.30;;;;;;;-1.79;78.56;99267.19;129371;1262;115245;-64
2023/11/29 12:32:40;;;;;;;43.20;21.60;;;;;;;-1.81;78.42;99266.01;129005;1262;115386;-64
2023/11/29 12:35:42;;;;;;;39.80;21.10;;;;;;;-1.82;78.53;99271.45;129400;1265;114875;-64
2023/11/29 12:38:51;;;;;;;42.40;20.90;;;;;;;-1.83;78.75;99270.76;129218;1265;114873;-63
2023/11/29 12:42:05;;;;;;;51.10;21.60;;;;;;;-1.87;78.45;99275.17;129369;1265;115128;-64
2023/11/29 12:45:16;;;;;;;50.40;23.80;;;;;;;-1.92;78.62;99274.23;129553;1270;114729;-65
2023/11/29 12:48:26;;;;;;;50.80;23.20;;;;;;;-1.94;78.68;99273.55;129402;1265;114790;-64
2023/11/29 12:51:32;;;;;;;54.90;25.30;;;;;;;-1.93;78.88;99270.39;129148;1265;127968;-64
2023/11/29 12:54:40;;;;;;;47.70;22.40;;;;;;;-1.92;78.88;99269.15;129380;1281;115161;-64
2023/11/29 12:57:44;;;;;;;49.50;22.90;;;;;;;-1.93;78.67;99265.31;129335;1283;114909;-64
2023/11/29 13:00:55;;;;;;;48.70;21.30;;;;;;;-1.91;78.67;99263.37;129386;1268;114792;-64
2023/11/29 13:04:01;;;;;;;45.50;22.20;;;;;;;-1.89;78.70;99262.80;129087;1283;114812;-64
2023/11/29 13:07:03;;;;;;;44.50;22.60;;;;;;;-1.87;78.43;99262.77;129111;1279;128947;-64
2023/11/29 13:10:06;;;;;;;50.40;23.70;;;;;;;-1.83;78.73;99264.48;129212;1283;114726;-64
2023/11/29 13:13:08;;;;;;;55.40;24.90;;;;;;;-1.83;78.96;99259.21;129489;1265;114735;-64
2023/11/29 13:16:11;;;;;;;56.60;24.90;;;;;;;-1.81;78.59;99254.82;126432;1265;3606291;-64
2023/11/29 13:19:13;;;;;;;56.70;25.70;;;;;;;-1.80;78.33;99250.59;129326;1262;114806;-64
2023/11/29 13:22:15;;;;;;;54.70;25.00;;;;;;;-1.79;79.03;99243.91;129152;1268;114803;-65
2023/11/29 13:25:18;;;;;;;50.60;25.70;;;;;;;-1.78;78.45;99240.58;129012;1271;114890;-65
2023/11/29 13:28:20;;;;;;;49.50;25.00;;;;;;;-1.78;78.90;99233.42;129322;1265;115207;-65
2023/11/29 13:31:22;;;;;;;54.90;24.80;;;;;;;-1.78;78.62;99234.45;129340;1265;114738;-67
2023/11/29 13:34:26;;;;;;;48.70;22.90;;;;;;;-1.76;78.05;99233.91;129432;1263;114727;-65
2023/11/29 13:37:28;;;;;;;47.80;22.00;;;;;;;-1.77;78.37;99235.66;129430;1262;115402;-63
2023/11/29 13:40:30;;;;;;;47.50;23.30;;;;;;;-1.78;78.50;99231.30;129204;1268;114823;-64
2023/11/29 13:43:33;;;;;;;48.10;25.30;;;;;;;-1.78;78.34;99231.82;129012;1275;114970;-63
2023/11/29 13:46:36;;;;;;;44.30;22.80;;;;;;;-1.77;78.39;99237.77;129249;1264;114920;-63